createdAt,value
2022-10-22T00:01:14.010Z,17.20
2022-10-22T00:03:42.279Z,16.60
2022-10-22T00:06:10.486Z,15.80
2022-10-22T00:08:38.647Z,15.30
2022-10-22T00:11:15.331Z,15.80
2022-10-22T00:13:44.283Z,15.40
2022-10-22T00:16:13.078Z,16.40
2022-10-22T00:18:41.621Z,16.60
2022-10-22T00:21:10.128Z,17.50
2022-10-22T00:23:42.165Z,17.30
2022-10-22T00:26:11.129Z,17.20
2022-10-22T00:28:39.380Z,17.10
2022-10-22T00:31:08.177Z,17.90
2022-10-22T00:33:36.508Z,18.10
2022-10-22T00:36:04.900Z,18.00
2022-10-22T00:38:34.023Z,18.60
2022-10-22T00:43:53.348Z,18.30
2022-10-22T00:46:21.386Z,18.00
2022-10-22T00:48:50.355Z,18.00
2022-10-22T00:51:21.300Z,17.70
2022-10-22T00:53:53.817Z,18.40
2022-10-22T00:56:26.447Z,18.20
2022-10-22T00:58:58.599Z,17.20
2022-10-22T01:01:30.911Z,16.80
2022-10-22T01:04:00.280Z,16.40
2022-10-22T01:06:34.090Z,17.30
2022-10-22T01:09:17.353Z,17.30
2022-10-22T01:11:54.705Z,15.70
2022-10-22T01:14:35.197Z,16.90
2022-10-22T01:17:14.177Z,15.50
2022-10-22T01:20:14.909Z,15.90
2022-10-22T01:23:01.556Z,17.10
2022-10-22T01:25:40.080Z,16.60
2022-10-22T01:28:29.060Z,15.70
2022-10-22T01:31:00.887Z,16.70
2022-10-22T01:33:35.910Z,16.50
2022-10-22T01:36:05.158Z,16.60
2022-10-22T01:38:34.565Z,16.70
2022-10-22T01:41:04.605Z,16.60
2022-10-22T01:43:33.667Z,17.40
2022-10-22T01:46:05.768Z,20.30
2022-10-22T01:48:56.122Z,17.50
2022-10-22T01:51:40.018Z,17.10
2022-10-22T01:54:36.217Z,17.10
2022-10-22T02:00:15.029Z,16.90
2022-10-22T02:03:04.597Z,17.80
2022-10-22T02:05:38.849Z,16.40
2022-10-22T02:08:11.337Z,16.30
2022-10-22T02:10:43.425Z,15.70
2022-10-22T02:13:32.440Z,15.60
2022-10-22T02:16:02.362Z,15.00
2022-10-22T02:18:38.836Z,15.70
2022-10-22T02:23:37.393Z,14.80
2022-10-22T02:26:31.837Z,15.80
2022-10-22T02:29:09.511Z,15.30
2022-10-22T02:31:42.236Z,15.40
2022-10-22T02:34:15.097Z,14.90
2022-10-22T02:36:48.224Z,14.70
2022-10-22T02:39:21.146Z,16.60
2022-10-22T02:41:49.631Z,15.10
2022-10-22T02:44:21.434Z,15.50
2022-10-22T02:46:50.523Z,17.80
2022-10-22T02:49:18.947Z,16.10
2022-10-22T02:51:47.544Z,16.20
2022-10-22T02:54:15.809Z,15.40
2022-10-22T02:56:43.913Z,15.90
2022-10-22T02:59:12.236Z,16.00
2022-10-22T03:01:40.746Z,16.80
2022-10-22T03:04:09.752Z,16.80
2022-10-22T03:06:39.721Z,15.00
2022-10-22T03:09:08.492Z,16.00
2022-10-22T03:11:37.443Z,16.60
2022-10-22T03:14:05.781Z,15.70
2022-10-22T03:16:34.267Z,14.90
2022-10-22T03:19:02.686Z,15.60
2022-10-22T03:21:51.392Z,13.90
2022-10-22T03:24:26.636Z,14.50
2022-10-22T03:26:55.695Z,15.60
2022-10-22T03:29:27.224Z,17.20
2022-10-22T03:31:55.692Z,17.70
2022-10-22T03:34:24.199Z,16.30
2022-10-22T03:36:53.856Z,17.70
2022-10-22T03:39:22.180Z,17.90
2022-10-22T03:41:52.557Z,19.70
2022-10-22T03:44:23.910Z,20.70
2022-10-22T03:46:52.735Z,20.80
2022-10-22T03:49:22.205Z,22.50
2022-10-22T03:51:50.468Z,21.80
2022-10-22T03:54:18.741Z,18.30
2022-10-22T03:56:47.030Z,20.50
2022-10-22T03:59:15.615Z,20.70
2022-10-22T04:01:43.661Z,19.50
2022-10-22T04:04:11.711Z,19.90
2022-10-22T04:06:40.066Z,19.00
2022-10-22T04:09:08.681Z,19.90
2022-10-22T04:11:36.998Z,18.70
2022-10-22T04:14:05.273Z,20.20
2022-10-22T04:16:33.744Z,21.30
2022-10-22T04:19:01.911Z,19.90
2022-10-22T04:21:30.259Z,22.00
2022-10-22T04:23:58.819Z,21.90
2022-10-22T04:26:27.810Z,21.30
2022-10-22T04:28:56.494Z,21.20
2022-10-22T04:31:26.134Z,20.80
2022-10-22T04:33:56.140Z,20.00
2022-10-22T04:36:25.777Z,20.70
2022-10-22T04:38:57.281Z,19.10
2022-10-22T04:41:31.123Z,18.40
2022-10-22T04:43:59.666Z,18.40
2022-10-22T04:46:30.146Z,16.70
2022-10-22T04:48:59.051Z,17.10
2022-10-22T04:51:28.063Z,17.20
2022-10-22T04:53:56.386Z,15.10
2022-10-22T04:56:28.096Z,16.10
2022-10-22T04:59:01.660Z,16.20
2022-10-22T05:01:40.017Z,18.60
2022-10-22T05:04:14.978Z,17.80
2022-10-22T05:06:44.133Z,17.20
2022-10-22T05:09:18.553Z,18.60
2022-10-22T05:11:50.354Z,19.30
2022-10-22T05:14:22.386Z,19.20
2022-10-22T05:16:52.564Z,20.70
2022-10-22T05:19:24.731Z,21.00
2022-10-22T05:21:55.069Z,19.80
2022-10-22T05:24:24.507Z,20.20
2022-10-22T05:26:54.535Z,19.40
2022-10-22T05:29:24.028Z,21.80
2022-10-22T05:31:53.531Z,22.30
2022-10-22T05:34:22.076Z,21.00
2022-10-22T05:36:51.014Z,20.40
2022-10-22T05:39:19.650Z,20.30
2022-10-22T05:41:47.865Z,19.30
2022-10-22T05:44:16.156Z,20.70
2022-10-22T05:46:44.456Z,19.90
2022-10-22T05:49:15.512Z,19.30
2022-10-22T05:51:43.861Z,18.70
2022-10-22T05:54:17.655Z,20.50
2022-10-22T05:56:46.578Z,19.60
2022-10-22T05:59:14.827Z,21.20
2022-10-22T06:01:43.022Z,21.80
2022-10-22T06:04:13.363Z,21.80
2022-10-22T06:06:50.639Z,20.10
2022-10-22T06:09:32.529Z,21.20
2022-10-22T06:12:01.843Z,21.10
2022-10-22T06:14:32.911Z,21.80
2022-10-22T06:17:01.229Z,22.00
2022-10-22T06:19:31.532Z,21.40
2022-10-22T06:21:59.873Z,19.90
2022-10-22T06:24:28.026Z,20.10
2022-10-22T06:26:56.060Z,18.50
2022-10-22T06:29:24.377Z,19.70
2022-10-22T06:31:52.363Z,18.20
2022-10-22T06:34:20.771Z,19.00
2022-10-22T06:36:49.181Z,18.50
2022-10-22T06:39:17.886Z,16.30
2022-10-22T06:41:47.162Z,16.30
2022-10-22T06:44:20.394Z,15.90
2022-10-22T06:46:52.484Z,15.10
2022-10-22T06:49:21.913Z,14.50
2022-10-22T06:51:52.408Z,15.60
2022-10-22T06:54:23.089Z,15.70
2022-10-22T06:56:51.724Z,13.30
2022-10-22T06:59:20.177Z,12.70
2022-10-22T07:01:48.402Z,11.40
2022-10-22T07:04:17.008Z,12.30
2022-10-22T07:06:45.269Z,13.30
2022-10-22T07:09:13.405Z,11.50
2022-10-22T07:11:45.261Z,12.00
2022-10-22T07:14:14.893Z,12.50
2022-10-22T07:16:43.609Z,13.20
2022-10-22T07:19:13.217Z,13.30
2022-10-22T07:21:41.560Z,13.20
2022-10-22T07:24:09.548Z,12.90
2022-10-22T07:26:37.707Z,12.40
2022-10-22T07:29:06.601Z,14.10
2022-10-22T07:31:34.962Z,13.20
2022-10-22T07:34:03.320Z,13.40
2022-10-22T07:36:32.056Z,15.50
2022-10-22T07:39:01.775Z,15.50
2022-10-22T07:41:30.837Z,15.10
2022-10-22T07:43:59.856Z,14.50
2022-10-22T07:46:28.350Z,15.10
2022-10-22T07:48:56.632Z,15.00
2022-10-22T07:51:26.310Z,15.50
2022-10-22T07:53:54.736Z,15.40
2022-10-22T07:56:23.280Z,16.70
2022-10-22T07:58:51.351Z,15.80
2022-10-22T08:01:20.885Z,15.80
2022-10-22T08:03:49.493Z,16.80
2022-10-22T08:06:17.925Z,17.10
2022-10-22T08:08:46.787Z,16.30
2022-10-22T08:11:15.289Z,14.60
2022-10-22T08:13:45.686Z,17.90
2022-10-22T08:16:15.075Z,16.90
2022-10-22T08:18:43.086Z,18.20
2022-10-22T08:21:14.408Z,16.90
2022-10-22T08:23:42.311Z,16.90
2022-10-22T08:26:11.547Z,18.00
2022-10-22T08:28:39.651Z,18.70
2022-10-22T08:31:08.429Z,19.50
2022-10-22T08:33:39.028Z,22.60
2022-10-22T08:36:07.955Z,21.70
2022-10-22T08:38:36.549Z,22.80
2022-10-22T08:41:17.780Z,23.00
2022-10-22T08:43:48.867Z,19.20
2022-10-22T08:46:43.329Z,21.70
2022-10-22T08:49:23.145Z,20.50
2022-10-22T08:51:52.129Z,20.80
2022-10-22T08:54:29.287Z,20.70
2022-10-22T08:57:03.811Z,20.70
2022-10-22T08:59:43.533Z,18.60
2022-10-22T09:02:38.951Z,19.90
2022-10-22T09:05:26.148Z,16.50
2022-10-22T09:07:56.037Z,16.40
2022-10-22T09:10:33.464Z,19.10
2022-10-22T09:13:02.141Z,17.40
2022-10-22T09:15:31.765Z,16.10
2022-10-22T09:18:00.050Z,16.30
2022-10-22T09:20:32.851Z,17.80
2022-10-22T09:23:19.974Z,17.20
2022-10-22T09:25:51.487Z,18.30
2022-10-22T09:28:20.434Z,16.80
2022-10-22T09:30:48.983Z,16.10
2022-10-22T09:33:24.734Z,15.10
2022-10-22T09:36:03.821Z,17.00
2022-10-22T09:38:45.315Z,15.80
2022-10-22T09:41:15.030Z,17.10
2022-10-22T09:43:43.468Z,16.50
2022-10-22T09:46:19.163Z,19.90
2022-10-22T09:48:58.192Z,16.00
2022-10-22T09:51:40.643Z,16.40
2022-10-22T09:54:40.289Z,16.70
2022-10-22T09:57:17.871Z,16.20
2022-10-22T09:59:50.563Z,14.90
2022-10-22T10:02:38.393Z,14.50
2022-10-22T10:05:08.339Z,14.70
2022-10-22T10:07:36.948Z,15.10
2022-10-22T10:10:19.940Z,16.10
2022-10-22T10:12:48.371Z,13.10
2022-10-22T10:15:34.254Z,14.70
2022-10-22T10:18:14.857Z,14.90
2022-10-22T10:21:01.918Z,12.60
2022-10-22T10:23:33.382Z,12.80
2022-10-22T10:26:14.814Z,14.10
2022-10-22T10:29:06.235Z,14.30
2022-10-22T10:32:03.653Z,14.30
2022-10-22T10:34:49.268Z,14.60
2022-10-22T10:37:31.271Z,15.90
2022-10-22T10:40:14.838Z,14.50
2022-10-22T10:42:55.998Z,14.80
2022-10-22T10:45:54.857Z,11.80
2022-10-22T10:49:02.949Z,12.40
2022-10-22T10:52:08.550Z,13.20
2022-10-22T10:55:19.026Z,12.90
2022-10-22T10:58:01.182Z,13.10
2022-10-22T11:00:35.604Z,12.30
2022-10-22T11:03:17.437Z,11.80
2022-10-22T11:06:09.516Z,11.60
2022-10-22T11:08:43.744Z,12.30
2022-10-22T11:11:19.671Z,11.40
2022-10-22T11:14:20.429Z,12.90
2022-10-22T11:16:59.334Z,12.60
2022-10-22T11:19:59.814Z,12.10
2022-10-22T11:23:17.505Z,13.30
2022-10-22T11:25:49.026Z,12.40
2022-10-22T11:28:37.706Z,11.60
2022-10-22T11:31:16.988Z,9.80
2022-10-22T11:34:32.841Z,11.20
2022-10-22T11:37:01.250Z,11.50
2022-10-22T11:39:34.696Z,12.40
2022-10-22T11:42:06.468Z,12.10
2022-10-22T11:44:50.012Z,11.60
2022-10-22T11:47:24.800Z,11.60
2022-10-22T11:50:18.420Z,13.30
2022-10-22T11:53:08.763Z,11.50
2022-10-22T11:55:52.871Z,11.30
2022-10-22T11:58:50.847Z,10.70
2022-10-22T12:01:26.055Z,11.80
2022-10-22T12:04:14.434Z,11.10
2022-10-22T12:07:31.577Z,12.20
2022-10-22T12:10:00.558Z,11.70
2022-10-22T12:12:40.035Z,10.70
2022-10-22T12:15:29.282Z,11.70
2022-10-22T12:18:04.724Z,11.40
2022-10-22T12:20:33.314Z,12.30
2022-10-22T12:23:01.957Z,11.80
2022-10-22T12:25:35.774Z,11.30
2022-10-22T12:28:04.625Z,10.40
2022-10-22T12:30:35.267Z,12.00
2022-10-22T12:33:08.053Z,11.60
2022-10-22T12:35:44.347Z,12.00
2022-10-22T12:38:20.386Z,12.70
2022-10-22T12:40:50.354Z,12.60
2022-10-22T12:43:24.222Z,13.10
2022-10-22T12:45:53.740Z,12.30
2022-10-22T12:48:29.934Z,11.70
2022-10-22T12:51:01.393Z,11.30
2022-10-22T12:53:31.178Z,11.50
2022-10-22T12:56:06.307Z,12.40
2022-10-22T12:58:39.643Z,12.50
2022-10-22T13:01:10.762Z,12.80
2022-10-22T13:03:49.970Z,13.50
2022-10-22T13:06:21.810Z,13.70
2022-10-22T13:09:08.599Z,14.30
2022-10-22T13:11:48.669Z,13.90
2022-10-22T13:14:30.211Z,13.30
2022-10-22T13:17:16.888Z,13.60
2022-10-22T13:19:48.260Z,13.70
2022-10-22T13:22:31.112Z,13.40
2022-10-22T13:25:32.015Z,12.70
2022-10-22T13:28:13.191Z,13.40
2022-10-22T13:30:56.279Z,13.40
2022-10-22T13:33:29.550Z,14.00
2022-10-22T13:35:57.795Z,13.20
2022-10-22T13:38:28.246Z,15.30
2022-10-22T13:40:57.740Z,15.30
2022-10-22T13:43:26.843Z,12.70
2022-10-22T13:45:59.020Z,13.30
2022-10-22T13:48:30.253Z,13.60
2022-10-22T13:50:58.546Z,15.40
2022-10-22T13:53:29.189Z,16.10
2022-10-22T13:55:58.441Z,15.30
2022-10-22T13:58:26.778Z,16.00
2022-10-22T14:00:59.217Z,15.20
2022-10-22T14:03:34.453Z,17.20
2022-10-22T14:06:02.958Z,19.00
2022-10-22T14:08:32.113Z,17.40
2022-10-22T14:11:00.465Z,17.30
2022-10-22T14:13:28.723Z,18.30
2022-10-22T14:15:56.975Z,21.00
2022-10-22T14:18:31.749Z,18.70
2022-10-22T14:21:05.345Z,17.60
2022-10-22T14:23:36.621Z,17.40
2022-10-22T14:26:05.097Z,16.60
2022-10-22T14:28:41.270Z,17.20
2022-10-22T14:31:15.448Z,15.30
2022-10-22T14:33:43.637Z,14.50
2022-10-22T14:36:15.182Z,14.00
2022-10-22T14:38:44.892Z,14.40
2022-10-22T14:41:25.172Z,14.50
2022-10-22T14:43:55.050Z,15.10
2022-10-22T14:46:23.271Z,13.90
2022-10-22T14:48:51.612Z,14.10
2022-10-22T14:51:23.565Z,15.30
2022-10-22T14:53:52.372Z,15.80
2022-10-22T14:56:23.513Z,15.10
2022-10-22T14:58:52.424Z,16.50
2022-10-22T15:01:21.165Z,18.40
2022-10-22T15:03:49.434Z,17.30
2022-10-22T15:06:17.949Z,18.70
2022-10-22T15:08:46.450Z,17.00
2022-10-22T15:11:14.806Z,16.40
2022-10-22T15:13:43.770Z,16.90
2022-10-22T15:16:15.059Z,16.50
2022-10-22T15:18:43.380Z,15.80
2022-10-22T15:21:18.022Z,14.80
2022-10-22T15:23:46.345Z,17.20
2022-10-22T15:26:15.229Z,15.30
2022-10-22T15:28:44.481Z,16.30
2022-10-22T15:31:14.559Z,18.70
2022-10-22T15:33:43.862Z,17.40
2022-10-22T15:36:14.812Z,17.20
2022-10-22T15:38:43.803Z,16.80
2022-10-22T15:41:13.737Z,16.50
2022-10-22T15:43:42.224Z,18.50
2022-10-22T15:46:15.343Z,17.40
2022-10-22T15:48:43.934Z,17.70
2022-10-22T15:51:17.346Z,17.60
2022-10-22T15:53:57.589Z,18.60
2022-10-22T15:56:28.302Z,17.20
2022-10-22T15:58:58.965Z,17.80
2022-10-22T16:01:28.465Z,17.10
2022-10-22T16:04:03.020Z,18.10
2022-10-22T16:06:36.492Z,18.00
2022-10-22T16:09:08.813Z,18.40
2022-10-22T16:11:38.393Z,19.70
2022-10-22T16:14:07.929Z,18.90
2022-10-22T16:16:39.589Z,19.00
2022-10-22T16:19:08.151Z,18.70
2022-10-22T16:21:36.553Z,20.00
2022-10-22T16:24:06.621Z,22.20
2022-10-22T16:26:36.013Z,23.10
2022-10-22T16:29:05.790Z,19.40
2022-10-22T16:31:34.537Z,19.40
2022-10-22T16:34:03.117Z,19.50
2022-10-22T16:36:31.511Z,20.80
2022-10-22T16:39:00.327Z,20.10
2022-10-22T16:41:35.549Z,21.70
2022-10-22T16:46:36.968Z,22.10
2022-10-22T16:49:06.665Z,23.00
2022-10-22T16:51:35.621Z,21.30
2022-10-22T16:54:06.807Z,21.50
2022-10-22T16:56:37.880Z,24.90
2022-10-22T16:59:06.797Z,28.50
2022-10-22T17:01:40.346Z,29.60
2022-10-22T17:04:10.136Z,26.40
2022-10-22T17:06:38.439Z,24.10
2022-10-22T17:09:06.689Z,25.90
2022-10-22T17:11:37.088Z,27.10
2022-10-22T17:14:07.975Z,31.00
2022-10-22T17:16:36.473Z,32.20
2022-10-22T17:19:04.700Z,34.20
2022-10-22T17:21:34.223Z,41.10
2022-10-22T17:24:02.692Z,42.50
2022-10-22T17:26:33.546Z,51.00
2022-10-22T17:29:01.922Z,46.50
2022-10-22T17:31:33.373Z,48.60
2022-10-22T17:34:02.049Z,41.30
2022-10-22T17:36:34.849Z,38.70
2022-10-22T17:39:07.789Z,39.40
2022-10-22T17:41:37.862Z,38.50
2022-10-22T17:44:09.355Z,38.50
2022-10-22T17:46:38.607Z,38.90
2022-10-22T17:49:17.590Z,38.30
2022-10-22T17:51:46.390Z,37.10
2022-10-22T17:54:14.759Z,38.50
2022-10-22T17:56:43.129Z,40.40
2022-10-22T17:59:14.212Z,40.10
2022-10-22T18:01:48.004Z,42.40
2022-10-22T18:04:18.889Z,41.50
2022-10-22T18:06:48.580Z,40.50
2022-10-22T18:09:19.206Z,38.20
2022-10-22T18:11:50.213Z,38.30
2022-10-22T18:14:20.591Z,38.80
2022-10-22T18:16:49.610Z,39.40
2022-10-22T18:19:22.362Z,37.70
2022-10-22T18:21:50.920Z,37.30
2022-10-22T18:24:18.970Z,36.30
2022-10-22T18:26:47.092Z,35.30
2022-10-22T18:29:18.345Z,34.50
2022-10-22T18:31:48.035Z,35.20
2022-10-22T18:34:19.013Z,33.30
2022-10-22T18:36:49.800Z,38.00
2022-10-22T18:39:18.227Z,37.70
2022-10-22T18:41:46.537Z,36.70
2022-10-22T18:44:15.973Z,35.20
2022-10-22T18:46:44.292Z,32.80
2022-10-22T18:49:18.194Z,33.30
2022-10-22T18:51:52.731Z,34.70
2022-10-22T18:54:23.800Z,34.40
2022-10-22T18:56:56.323Z,33.60
2022-10-22T18:59:27.474Z,35.90
2022-10-22T19:02:00.144Z,37.30
2022-10-22T19:04:33.728Z,32.20
2022-10-22T19:07:01.831Z,34.60
2022-10-22T19:09:30.647Z,35.10
2022-10-22T19:11:59.836Z,37.20
2022-10-22T19:14:27.935Z,33.90
2022-10-22T19:16:56.286Z,36.30
2022-10-22T19:19:24.633Z,34.10
2022-10-22T19:21:52.810Z,32.40
2022-10-22T19:24:21.234Z,32.90
2022-10-22T19:26:50.426Z,33.60
2022-10-22T19:29:20.639Z,33.50
2022-10-22T19:31:51.283Z,28.70
2022-10-22T19:34:20.639Z,27.10
2022-10-22T19:36:51.899Z,28.90
2022-10-22T19:39:20.428Z,29.50
2022-10-22T19:41:49.208Z,31.50
2022-10-22T19:44:17.625Z,34.20
2022-10-22T19:46:45.807Z,32.40
2022-10-22T19:49:17.653Z,32.60
2022-10-22T19:51:49.237Z,32.10
2022-10-22T19:54:20.851Z,31.20
2022-10-22T19:56:50.056Z,29.10
2022-10-22T19:59:22.827Z,28.40
2022-10-22T20:01:51.101Z,27.60
2022-10-22T20:04:19.587Z,26.60
2022-10-22T20:06:47.810Z,26.60
2022-10-22T20:09:16.067Z,26.10
2022-10-22T20:11:44.667Z,25.10
2022-10-22T20:14:13.970Z,27.10
2022-10-22T20:16:42.612Z,27.30
2022-10-22T20:19:10.956Z,27.60
2022-10-22T20:21:39.633Z,28.10
2022-10-22T20:24:08.087Z,29.10
2022-10-22T20:26:36.226Z,30.00
2022-10-22T20:29:04.495Z,28.90
2022-10-22T20:31:33.445Z,28.90
2022-10-22T20:34:02.994Z,30.50
2022-10-22T20:36:32.495Z,30.10
2022-10-22T20:39:06.439Z,29.30
2022-10-22T20:41:38.362Z,27.30
2022-10-22T20:44:17.279Z,26.00
2022-10-22T20:46:45.997Z,27.40
2022-10-22T20:49:17.017Z,29.30
2022-10-22T20:51:45.402Z,28.80
2022-10-22T20:54:15.287Z,28.20
2022-10-22T20:56:44.262Z,28.20
2022-10-22T20:59:12.951Z,26.80
2022-10-22T21:01:46.686Z,29.40
2022-10-22T21:04:17.200Z,29.90
2022-10-22T21:06:45.948Z,30.60
2022-10-22T21:09:14.890Z,34.10
2022-10-22T21:11:43.923Z,32.60
2022-10-22T21:14:14.296Z,34.40
2022-10-22T21:16:51.476Z,33.10
2022-10-22T21:19:20.522Z,28.90
2022-10-22T21:21:49.723Z,29.90
2022-10-22T21:24:18.313Z,32.10
2022-10-22T21:26:46.628Z,31.90
2022-10-22T21:29:14.527Z,32.30
2022-10-22T21:31:43.468Z,31.90
2022-10-22T21:34:13.501Z,31.50
2022-10-22T21:36:42.681Z,31.80
2022-10-22T21:39:12.393Z,31.00
2022-10-22T21:41:41.169Z,30.30
2022-10-22T21:44:09.702Z,32.30
2022-10-22T21:46:38.119Z,31.60
2022-10-22T21:49:06.140Z,33.40
2022-10-22T21:51:35.947Z,33.50
2022-10-22T21:54:04.944Z,33.30
2022-10-22T21:56:35.771Z,34.70
2022-10-22T21:59:05.133Z,35.10
2022-10-22T22:01:33.485Z,35.20
2022-10-22T22:04:01.713Z,38.50
2022-10-22T22:06:33.507Z,32.10
2022-10-22T22:09:03.730Z,32.20
2022-10-22T22:11:32.792Z,33.50
2022-10-22T22:14:00.838Z,32.80
2022-10-22T22:16:32.483Z,30.80
2022-10-22T22:21:42.083Z,30.70
2022-10-22T22:24:13.004Z,31.60
2022-10-22T22:26:41.263Z,30.20
2022-10-22T22:29:10.555Z,26.80
2022-10-22T22:31:38.776Z,27.80
2022-10-22T22:34:11.274Z,28.40
2022-10-22T22:36:41.733Z,27.50
2022-10-22T22:39:18.917Z,28.60
2022-10-22T22:41:48.251Z,26.70
2022-10-22T22:44:17.373Z,27.70
2022-10-22T22:46:45.629Z,29.00
2022-10-22T22:49:14.416Z,29.40
2022-10-22T22:51:43.832Z,29.70
2022-10-22T22:54:11.917Z,30.80
2022-10-22T22:56:40.013Z,30.10
2022-10-22T22:59:08.209Z,32.00
2022-10-22T23:01:38.732Z,31.80
2022-10-22T23:04:08.289Z,31.00
2022-10-22T23:06:37.899Z,29.90
2022-10-22T23:09:09.571Z,29.20
2022-10-22T23:11:38.720Z,28.40
2022-10-22T23:14:08.648Z,27.30
2022-10-22T23:16:39.830Z,26.50
2022-10-22T23:19:08.082Z,27.20
2022-10-22T23:21:39.544Z,24.60
2022-10-22T23:24:11.903Z,25.40
2022-10-22T23:26:43.292Z,26.80
2022-10-22T23:29:14.998Z,24.50
2022-10-22T23:31:44.294Z,25.80
2022-10-22T23:34:16.487Z,24.70
2022-10-22T23:36:44.710Z,25.00
2022-10-22T23:39:19.255Z,23.60
2022-10-22T23:41:47.798Z,23.80
2022-10-22T23:44:16.209Z,23.70
2022-10-22T23:46:44.674Z,22.80
2022-10-22T23:49:13.584Z,21.80
2022-10-22T23:51:42.275Z,19.90
2022-10-22T23:54:18.301Z,21.20
2022-10-22T23:56:47.401Z,19.00
2022-10-22T23:59:15.980Z,17.30
